createdAt,value
2022-09-14T00:01:28.891Z,83.20
2022-09-14T00:04:01.510Z,82.90
2022-09-14T00:06:30.367Z,82.80
2022-09-14T00:08:58.928Z,82.70
2022-09-14T00:11:27.783Z,82.80
2022-09-14T00:13:56.039Z,83.00
2022-09-14T00:16:25.901Z,83.20
2022-09-14T00:18:54.351Z,83.00
2022-09-14T00:21:21.606Z,82.90
2022-09-14T00:23:48.406Z,82.80
2022-09-14T00:26:18.200Z,82.80
2022-09-14T00:28:47.786Z,82.40
2022-09-14T00:31:15.562Z,82.40
2022-09-14T00:33:44.078Z,82.00
2022-09-14T00:36:26.895Z,81.80
2022-09-14T00:38:56.601Z,81.70
2022-09-14T00:41:26.022Z,81.10
2022-09-14T00:44:06.502Z,80.20
2022-09-14T00:46:42.528Z,78.80
2022-09-14T00:49:13.231Z,78.80
2022-09-14T00:51:52.035Z,79.30
2022-09-14T00:54:19.467Z,78.80
2022-09-14T00:56:47.719Z,78.40
2022-09-14T00:59:19.437Z,78.20
2022-09-14T01:01:46.681Z,78.30
2022-09-14T01:04:13.431Z,78.60
2022-09-14T01:06:56.820Z,79.00
2022-09-14T01:09:29.269Z,79.10
2022-09-14T01:12:11.113Z,79.10
2022-09-14T01:15:15.892Z,79.20
2022-09-14T01:18:03.979Z,79.30
2022-09-14T01:20:40.331Z,79.00
2022-09-14T01:23:27.496Z,78.70
2022-09-14T01:26:25.003Z,78.40
2022-09-14T01:29:11.989Z,78.20
2022-09-14T01:31:52.966Z,77.90
2022-09-14T01:34:31.607Z,77.70
2022-09-14T01:37:04.811Z,77.40
2022-09-14T01:39:35.154Z,76.80
2022-09-14T01:42:03.049Z,77.60
2022-09-14T01:44:36.016Z,76.80
2022-09-14T01:47:13.188Z,75.30
2022-09-14T01:49:46.803Z,75.30
2022-09-14T01:52:19.995Z,75.60
2022-09-14T01:54:52.802Z,75.50
2022-09-14T01:57:31.853Z,76.20
2022-09-14T02:00:03.744Z,76.40
2022-09-14T02:02:41.598Z,77.50
2022-09-14T02:05:15.141Z,77.80
2022-09-14T02:07:41.936Z,78.50
2022-09-14T02:10:12.471Z,79.00
2022-09-14T02:12:40.681Z,79.50
2022-09-14T02:15:10.714Z,80.50
2022-09-14T02:17:37.926Z,81.10
2022-09-14T02:20:08.322Z,81.30
2022-09-14T02:22:35.692Z,82.80
2022-09-14T02:25:03.058Z,83.50
2022-09-14T02:27:29.628Z,83.90
2022-09-14T02:29:56.392Z,84.20
2022-09-14T02:32:38.903Z,84.30
2022-09-14T02:35:11.062Z,84.70
2022-09-14T02:37:52.912Z,85.00
2022-09-14T02:40:22.349Z,85.50
2022-09-14T02:43:01.686Z,86.20
2022-09-14T02:45:28.287Z,86.90
2022-09-14T02:48:11.445Z,87.10
2022-09-14T02:51:05.064Z,87.20
2022-09-14T02:53:46.271Z,87.80
2022-09-14T02:56:15.019Z,88.10
2022-09-14T02:58:43.801Z,88.30
2022-09-14T03:01:13.666Z,88.60
2022-09-14T03:03:40.493Z,89.30
2022-09-14T03:06:07.305Z,89.70
2022-09-14T03:08:34.191Z,89.40
2022-09-14T03:11:01.024Z,89.80
2022-09-14T03:13:27.708Z,90.30
2022-09-14T03:15:54.832Z,90.60
2022-09-14T03:18:21.483Z,90.60
2022-09-14T03:20:48.190Z,90.60
2022-09-14T03:23:15.127Z,91.40
2022-09-14T03:25:44.523Z,91.90
2022-09-14T03:28:12.804Z,92.00
2022-09-14T03:30:39.995Z,92.00
2022-09-14T03:33:07.082Z,92.20
2022-09-14T03:35:34.093Z,92.20
2022-09-14T03:38:03.048Z,92.50
2022-09-14T03:40:29.953Z,92.90
2022-09-14T03:42:57.092Z,93.80
2022-09-14T03:45:23.975Z,93.10
2022-09-14T03:47:50.611Z,93.40
2022-09-14T03:50:18.222Z,93.70
2022-09-14T03:52:45.099Z,93.80
2022-09-14T03:55:11.963Z,94.00
2022-09-14T03:57:39.384Z,94.10
2022-09-14T04:00:07.655Z,94.20
2022-09-14T04:02:34.461Z,94.40
2022-09-14T04:05:01.185Z,94.50
2022-09-14T04:07:27.804Z,94.30
2022-09-14T04:09:54.502Z,94.10
2022-09-14T04:12:21.160Z,94.20
2022-09-14T04:14:47.902Z,94.20
2022-09-14T04:17:14.552Z,94.40
2022-09-14T04:19:42.110Z,94.50
2022-09-14T04:22:09.240Z,94.70
2022-09-14T04:24:36.445Z,95.00
2022-09-14T04:27:03.193Z,95.00
2022-09-14T04:29:30.658Z,94.80
2022-09-14T04:31:57.978Z,95.20
2022-09-14T04:34:24.791Z,95.40
2022-09-14T04:36:51.680Z,95.60
2022-09-14T04:39:18.498Z,95.60
2022-09-14T04:41:45.215Z,95.50
2022-09-14T04:44:12.073Z,95.50
2022-09-14T04:46:43.594Z,96.30
2022-09-14T04:49:12.980Z,95.20
2022-09-14T04:51:39.842Z,95.30
2022-09-14T04:54:07.505Z,94.90
2022-09-14T04:56:36.830Z,94.90
2022-09-14T04:59:05.603Z,94.80
2022-09-14T05:01:37.249Z,94.80
2022-09-14T05:04:12.997Z,94.90
2022-09-14T05:06:41.527Z,94.80
2022-09-14T05:09:13.600Z,94.80
2022-09-14T05:11:41.271Z,94.80
2022-09-14T05:14:09.625Z,94.50
2022-09-14T05:16:37.882Z,94.50
2022-09-14T05:19:07.799Z,94.40
2022-09-14T05:21:36.140Z,94.60
2022-09-14T05:24:14.967Z,94.30
2022-09-14T05:26:43.306Z,94.40
2022-09-14T05:29:15.362Z,94.50
2022-09-14T05:31:42.369Z,94.70
2022-09-14T05:34:10.666Z,94.70
2022-09-14T05:36:38.143Z,94.20
2022-09-14T05:39:06.115Z,94.30
2022-09-14T05:41:32.980Z,95.10
2022-09-14T05:44:00.679Z,94.80
2022-09-14T05:46:27.508Z,94.70
2022-09-14T05:48:54.457Z,94.20
2022-09-14T05:51:23.441Z,94.50
2022-09-14T05:53:51.717Z,95.50
2022-09-14T05:56:19.642Z,94.70
2022-09-14T05:58:46.988Z,94.80
2022-09-14T06:01:17.519Z,94.40
2022-09-14T06:03:45.817Z,94.60
2022-09-14T06:06:15.438Z,94.80
2022-09-14T06:08:44.224Z,95.00
2022-09-14T06:11:18.983Z,94.80
2022-09-14T06:13:47.005Z,94.80
2022-09-14T06:16:18.522Z,94.60
2022-09-14T06:18:47.460Z,94.60
2022-09-14T06:21:17.737Z,95.10
2022-09-14T06:23:46.096Z,95.10
2022-09-14T06:26:13.827Z,95.00
2022-09-14T06:28:41.609Z,95.00
2022-09-14T06:31:14.176Z,95.00
2022-09-14T06:33:46.265Z,95.30
2022-09-14T06:36:19.654Z,95.30
2022-09-14T06:38:48.884Z,95.50
2022-09-14T06:41:18.064Z,95.50
2022-09-14T06:43:45.814Z,95.60
2022-09-14T06:46:21.708Z,95.70
2022-09-14T06:48:53.057Z,95.90
2022-09-14T06:51:21.544Z,96.10
2022-09-14T06:53:49.443Z,96.30
2022-09-14T06:56:16.776Z,96.50
2022-09-14T06:58:43.933Z,96.60
2022-09-14T07:01:14.254Z,96.90
2022-09-14T07:03:43.482Z,97.10
2022-09-14T07:06:14.137Z,97.20
2022-09-14T07:08:41.692Z,97.20
2022-09-14T07:11:10.127Z,97.30
2022-09-14T07:13:37.202Z,97.20
2022-09-14T07:16:04.645Z,97.00
2022-09-14T07:18:35.356Z,96.90
2022-09-14T07:21:09.961Z,97.00
2022-09-14T07:23:38.494Z,97.20
2022-09-14T07:26:10.331Z,97.20
2022-09-14T07:28:38.098Z,97.20
2022-09-14T07:31:06.438Z,97.20
2022-09-14T07:33:33.880Z,97.10
2022-09-14T07:36:11.357Z,96.40
2022-09-14T07:38:53.850Z,96.50
2022-09-14T07:41:22.512Z,96.50
2022-09-14T07:43:52.143Z,96.20
2022-09-14T07:46:19.941Z,96.10
2022-09-14T07:48:47.829Z,96.30
2022-09-14T07:51:14.721Z,96.40
2022-09-14T07:53:43.379Z,96.40
2022-09-14T07:56:11.711Z,96.50
2022-09-14T07:58:38.971Z,96.60
2022-09-14T08:01:13.919Z,96.90
2022-09-14T08:03:43.375Z,96.90
2022-09-14T08:06:16.117Z,97.90
2022-09-14T08:08:44.982Z,96.90
2022-09-14T08:11:14.031Z,96.90
2022-09-14T08:13:44.284Z,97.10
2022-09-14T08:16:11.882Z,97.30
2022-09-14T08:18:39.209Z,97.40
2022-09-14T08:21:11.530Z,97.40
2022-09-14T08:23:39.595Z,97.40
2022-09-14T08:26:08.460Z,97.50
2022-09-14T08:28:36.350Z,97.50
2022-09-14T08:31:05.396Z,97.50
2022-09-14T08:33:33.823Z,98.30
2022-09-14T08:36:00.987Z,97.80
2022-09-14T08:38:27.851Z,97.60
2022-09-14T08:40:55.244Z,97.60
2022-09-14T08:43:25.236Z,97.60
2022-09-14T08:45:57.571Z,97.60
2022-09-14T08:48:30.739Z,97.90
2022-09-14T08:50:57.312Z,97.90
2022-09-14T08:53:25.546Z,98.60
2022-09-14T08:56:07.937Z,98.40
2022-09-14T08:59:06.145Z,98.40
2022-09-14T09:02:03.896Z,98.10
2022-09-14T09:04:44.961Z,97.70
2022-09-14T09:07:22.896Z,96.90
2022-09-14T09:09:52.430Z,97.00
2022-09-14T09:12:23.763Z,97.00
2022-09-14T09:14:55.042Z,97.00
2022-09-14T09:17:29.202Z,97.30
2022-09-14T09:20:20.704Z,97.40
2022-09-14T09:22:54.582Z,97.70
2022-09-14T09:25:29.410Z,97.70
2022-09-14T09:28:02.508Z,97.90
2022-09-14T09:30:30.180Z,98.00
2022-09-14T09:32:57.646Z,98.50
2022-09-14T09:35:24.986Z,97.50
2022-09-14T09:37:51.738Z,97.50
2022-09-14T09:40:32.362Z,97.60
2022-09-14T09:43:06.024Z,97.50
2022-09-14T09:45:48.690Z,97.30
2022-09-14T09:48:17.736Z,97.30
2022-09-14T09:50:59.354Z,97.20
2022-09-14T09:53:26.216Z,97.20
2022-09-14T09:55:53.067Z,97.20
2022-09-14T09:58:37.615Z,97.30
2022-09-14T10:01:12.024Z,96.90
2022-09-14T10:03:40.530Z,97.30
2022-09-14T10:06:12.321Z,97.60
2022-09-14T10:08:44.761Z,97.60
2022-09-14T10:11:32.410Z,97.40
2022-09-14T10:13:59.732Z,97.10
2022-09-14T10:16:33.437Z,97.60
2022-09-14T10:19:02.770Z,98.50
2022-09-14T10:21:31.224Z,98.40
2022-09-14T10:24:17.118Z,98.50
2022-09-14T10:26:44.111Z,98.30
2022-09-14T10:29:41.732Z,98.10
2022-09-14T10:32:22.217Z,97.50
2022-09-14T10:34:48.968Z,97.50
2022-09-14T10:37:43.453Z,97.60
2022-09-14T10:40:20.362Z,97.90
2022-09-14T10:42:51.793Z,98.10
2022-09-14T10:45:55.110Z,98.10
2022-09-14T10:48:46.347Z,98.20
2022-09-14T10:51:25.468Z,98.50
2022-09-14T10:54:14.976Z,98.70
2022-09-14T10:56:59.715Z,98.80
2022-09-14T10:59:38.361Z,98.70
2022-09-14T11:02:42.270Z,98.70
2022-09-14T11:05:27.010Z,98.60
2022-09-14T11:08:05.708Z,98.60
2022-09-14T11:10:56.056Z,98.50
2022-09-14T11:13:50.745Z,98.70
2022-09-14T11:16:47.933Z,98.80
2022-09-14T11:19:35.439Z,98.90
2022-09-14T11:22:28.451Z,99.10
2022-09-14T11:25:17.999Z,99.00
2022-09-14T11:28:00.688Z,99.10
2022-09-14T11:30:39.460Z,99.30
2022-09-14T11:33:14.213Z,98.90
2022-09-14T11:36:07.019Z,98.90
2022-09-14T11:38:48.523Z,99.10
2022-09-14T11:41:32.466Z,99.30
2022-09-14T11:44:02.711Z,99.30
2022-09-14T11:46:44.966Z,99.50
2022-09-14T11:49:26.667Z,99.60
2022-09-14T11:52:02.629Z,99.70
2022-09-14T11:54:29.276Z,99.90
2022-09-14T11:57:01.931Z,99.90
2022-09-14T11:59:39.561Z,99.90
2022-09-14T12:02:24.975Z,99.90
2022-09-14T12:05:07.284Z,99.90
2022-09-14T12:07:42.369Z,99.80
2022-09-14T12:10:15.328Z,99.90
2022-09-14T12:12:44.110Z,99.90
2022-09-14T12:15:28.872Z,99.80
2022-09-14T12:18:07.581Z,99.90
2022-09-14T12:20:38.426Z,99.90
2022-09-14T12:23:26.203Z,99.90
2022-09-14T12:26:00.049Z,99.90
2022-09-14T12:28:34.662Z,99.90
2022-09-14T12:31:02.681Z,99.90
2022-09-14T12:33:32.442Z,99.90
2022-09-14T12:36:11.047Z,99.90
2022-09-14T12:38:38.017Z,99.90
2022-09-14T12:41:10.372Z,99.90
2022-09-14T12:43:37.283Z,99.90
2022-09-14T12:46:22.347Z,99.90
2022-09-14T12:48:49.137Z,99.90
2022-09-14T12:51:29.375Z,99.90
2022-09-14T12:54:01.055Z,99.90
2022-09-14T12:56:41.429Z,99.90
2022-09-14T12:59:29.685Z,99.90
2022-09-14T13:02:23.962Z,99.90
2022-09-14T13:04:56.427Z,99.90
2022-09-14T13:07:26.046Z,99.90
2022-09-14T13:09:55.555Z,99.90
2022-09-14T13:12:34.690Z,99.90
2022-09-14T13:15:07.416Z,99.90
2022-09-14T13:17:34.164Z,99.90
2022-09-14T13:20:15.642Z,99.90
2022-09-14T13:22:43.035Z,99.90
2022-09-14T13:25:32.289Z,99.90
2022-09-14T13:28:16.482Z,99.90
2022-09-14T13:30:43.537Z,99.90
2022-09-14T13:33:17.751Z,99.90
2022-09-14T13:36:01.756Z,99.90
2022-09-14T13:38:34.339Z,99.90
2022-09-14T13:41:15.056Z,99.90
2022-09-14T13:43:44.061Z,99.90
2022-09-14T13:46:11.819Z,99.90
2022-09-14T13:48:41.420Z,99.90
2022-09-14T13:51:09.399Z,99.90
2022-09-14T13:53:51.553Z,99.90
2022-09-14T13:56:31.103Z,99.90
2022-09-14T13:59:07.124Z,99.90
2022-09-14T14:01:38.413Z,99.90
2022-09-14T14:04:05.392Z,99.90
2022-09-14T14:06:37.915Z,99.90
2022-09-14T14:09:09.836Z,99.90
2022-09-14T14:11:43.234Z,99.90
2022-09-14T14:14:16.151Z,99.90
2022-09-14T14:17:21.555Z,99.90
2022-09-14T14:19:50.011Z,99.90
2022-09-14T14:22:20.897Z,99.90
2022-09-14T14:25:12.444Z,99.90
2022-09-14T14:27:43.713Z,99.90
2022-09-14T14:30:22.027Z,99.90
2022-09-14T14:32:56.999Z,99.90
2022-09-14T14:35:30.076Z,99.90
2022-09-14T14:37:57.617Z,99.90
2022-09-14T14:40:27.262Z,99.90
2022-09-14T14:42:55.241Z,99.90
2022-09-14T14:45:26.517Z,99.90
2022-09-14T14:47:55.044Z,99.90
2022-09-14T14:50:24.281Z,99.90
2022-09-14T14:52:51.707Z,99.90
2022-09-14T14:55:21.041Z,99.90
2022-09-14T14:57:48.812Z,99.90
2022-09-14T15:00:26.263Z,99.90
2022-09-14T15:02:53.008Z,99.90
2022-09-14T15:05:20.597Z,99.90
2022-09-14T15:07:49.982Z,99.90
2022-09-14T15:10:17.102Z,99.90
2022-09-14T15:12:44.498Z,99.90
2022-09-14T15:15:16.428Z,99.90
2022-09-14T15:17:43.781Z,99.90
2022-09-14T15:20:11.021Z,99.90
2022-09-14T15:22:38.194Z,99.90
2022-09-14T15:25:05.939Z,99.90
2022-09-14T15:27:33.222Z,99.90
2022-09-14T15:30:00.026Z,99.90
2022-09-14T15:32:26.769Z,99.90
2022-09-14T15:34:53.613Z,99.90
2022-09-14T15:37:20.491Z,99.90
2022-09-14T15:39:54.807Z,99.90
2022-09-14T15:42:27.187Z,99.90
2022-09-14T15:44:53.876Z,99.90
2022-09-14T15:47:20.646Z,99.90
2022-09-14T15:49:51.612Z,99.90
2022-09-14T15:52:18.747Z,99.90
2022-09-14T15:54:45.424Z,99.90
2022-09-14T15:57:13.333Z,99.90
2022-09-14T15:59:40.108Z,99.90
2022-09-14T16:02:07.139Z,99.90
2022-09-14T16:04:38.188Z,99.90
2022-09-14T16:07:09.617Z,99.90
2022-09-14T16:09:41.395Z,99.90
2022-09-14T16:12:12.908Z,99.90
2022-09-14T16:14:39.613Z,99.90
2022-09-14T16:17:06.614Z,99.90
2022-09-14T16:19:33.319Z,99.90
2022-09-14T16:22:00.376Z,99.90
2022-09-14T16:24:27.612Z,99.90
2022-09-14T16:26:54.932Z,99.90
2022-09-14T16:29:24.133Z,99.90
2022-09-14T16:31:51.486Z,99.90
2022-09-14T16:34:24.362Z,99.90
2022-09-14T16:36:51.705Z,99.90
2022-09-14T16:39:22.882Z,99.90
2022-09-14T16:41:50.001Z,99.90
2022-09-14T16:44:22.871Z,99.90
2022-09-14T16:46:49.886Z,99.90
2022-09-14T16:49:17.957Z,99.90
2022-09-14T16:51:44.887Z,99.90
2022-09-14T16:54:18.989Z,99.90
2022-09-14T16:56:46.647Z,99.90
2022-09-14T16:59:14.006Z,99.90
2022-09-14T17:01:49.751Z,99.90
2022-09-14T17:04:22.969Z,99.90
2022-09-14T17:06:51.477Z,99.90
2022-09-14T17:09:20.994Z,99.90
2022-09-14T17:11:48.577Z,99.90
2022-09-14T17:14:28.508Z,99.90
2022-09-14T17:16:55.703Z,99.90
2022-09-14T17:19:22.959Z,99.90
2022-09-14T17:21:49.972Z,99.90
2022-09-14T17:24:18.685Z,99.90
2022-09-14T17:26:45.680Z,99.90
2022-09-14T17:29:12.520Z,99.90
2022-09-14T17:31:42.611Z,99.90
2022-09-14T17:34:11.441Z,99.90
2022-09-14T17:36:38.851Z,99.90
2022-09-14T17:39:11.657Z,99.90
2022-09-14T17:41:39.650Z,99.90
2022-09-14T17:44:07.505Z,99.90
2022-09-14T17:46:34.801Z,99.90
2022-09-14T17:49:04.796Z,99.90
2022-09-14T17:51:32.819Z,99.90
2022-09-14T17:54:00.997Z,99.90
2022-09-14T17:56:28.932Z,99.90
2022-09-14T17:59:02.330Z,99.90
2022-09-14T18:01:29.929Z,99.90
2022-09-14T18:04:00.238Z,99.90
2022-09-14T18:06:29.800Z,99.90
2022-09-14T18:09:00.349Z,99.90
2022-09-14T18:11:28.193Z,99.90
2022-09-14T18:13:55.957Z,99.90
2022-09-14T18:16:23.873Z,99.90
2022-09-14T18:18:51.066Z,99.90
2022-09-14T18:21:18.729Z,99.90
2022-09-14T18:23:50.366Z,99.90
2022-09-14T18:26:17.231Z,99.90
2022-09-14T18:28:44.766Z,99.90
2022-09-14T18:31:13.670Z,99.90
2022-09-14T18:33:46.003Z,99.90
2022-09-14T18:36:14.714Z,99.90
2022-09-14T18:38:42.099Z,99.90
2022-09-14T18:41:10.327Z,99.90
2022-09-14T18:43:37.664Z,99.90
2022-09-14T18:46:08.363Z,99.90
2022-09-14T18:48:35.548Z,99.90
2022-09-14T18:51:05.395Z,99.90
2022-09-14T18:53:32.712Z,99.90
2022-09-14T18:56:11.475Z,99.90
2022-09-14T18:58:45.155Z,99.90
2022-09-14T19:01:13.077Z,99.90
2022-09-14T19:03:41.879Z,99.90
2022-09-14T19:06:11.518Z,99.90
2022-09-14T19:08:38.359Z,99.90
2022-09-14T19:11:14.292Z,99.90
2022-09-14T19:13:41.310Z,99.90
2022-09-14T19:16:09.119Z,99.90
2022-09-14T19:18:36.546Z,99.90
2022-09-14T19:21:07.001Z,99.90
2022-09-14T19:23:34.304Z,99.90
2022-09-14T19:26:23.346Z,99.90
2022-09-14T19:28:50.085Z,99.90
2022-09-14T19:31:18.964Z,99.90
2022-09-14T19:33:46.182Z,99.90
2022-09-14T19:36:19.940Z,99.90
2022-09-14T19:38:48.087Z,99.90
2022-09-14T19:41:16.164Z,99.90
2022-09-14T19:43:43.454Z,99.90
2022-09-14T19:46:22.851Z,99.90
2022-09-14T19:48:49.760Z,99.90
2022-09-14T19:51:22.142Z,99.90
2022-09-14T19:53:50.613Z,99.90
2022-09-14T19:56:21.585Z,99.90
2022-09-14T19:58:50.259Z,99.90
2022-09-14T20:01:19.361Z,99.90
2022-09-14T20:03:47.004Z,99.90
2022-09-14T20:06:19.281Z,99.90
2022-09-14T20:08:46.617Z,99.90
2022-09-14T20:11:19.191Z,99.90
2022-09-14T20:13:48.421Z,99.90
2022-09-14T20:16:21.272Z,99.90
2022-09-14T20:18:49.467Z,99.90
2022-09-14T20:21:19.568Z,99.90
2022-09-14T20:24:11.605Z,99.90
2022-09-14T20:26:33.605Z,99.90
2022-09-14T20:29:01.184Z,99.90
2022-09-14T20:31:29.340Z,99.90
2022-09-14T20:33:57.226Z,99.90
2022-09-14T20:36:25.189Z,99.90
2022-09-14T20:38:54.683Z,99.90
2022-09-14T20:41:24.250Z,99.90
2022-09-14T20:43:51.592Z,99.90
2022-09-14T20:46:23.285Z,99.90
2022-09-14T20:48:50.969Z,99.90
2022-09-14T20:51:20.536Z,99.90
2022-09-14T20:53:48.566Z,99.90
2022-09-14T20:56:21.229Z,99.90
2022-09-14T20:58:48.838Z,99.90
2022-09-14T21:01:20.534Z,99.90
2022-09-14T21:03:48.969Z,99.90
2022-09-14T21:06:23.639Z,99.90
2022-09-14T21:08:50.787Z,99.90
2022-09-14T21:11:20.673Z,99.90
2022-09-14T21:13:47.939Z,99.90
2022-09-14T21:16:21.322Z,99.90
2022-09-14T21:18:52.131Z,99.90
2022-09-14T21:21:19.756Z,99.90
2022-09-14T21:23:48.550Z,99.90
2022-09-14T21:26:16.128Z,99.90
2022-09-14T21:28:43.108Z,99.90
2022-09-14T21:31:21.052Z,99.90
2022-09-14T21:33:50.921Z,99.90
2022-09-14T21:36:18.983Z,99.90
2022-09-14T21:38:54.039Z,99.90
2022-09-14T21:41:22.759Z,99.90
2022-09-14T21:43:49.836Z,99.90
2022-09-14T21:46:17.005Z,99.90
2022-09-14T21:48:43.813Z,99.90
2022-09-14T21:51:10.406Z,99.90
2022-09-14T21:53:37.234Z,99.90
2022-09-14T21:56:05.757Z,99.90
2022-09-14T21:58:32.826Z,99.90
2022-09-14T22:01:01.231Z,99.90
2022-09-14T22:03:28.632Z,99.90
2022-09-14T22:06:05.392Z,99.90
2022-09-14T22:08:34.104Z,99.90
2022-09-14T22:11:15.027Z,99.90
2022-09-14T22:13:42.319Z,99.90
2022-09-14T22:16:10.956Z,99.90
2022-09-14T22:18:39.127Z,99.90
2022-09-14T22:21:06.790Z,99.90
2022-09-14T22:23:34.998Z,99.90
2022-09-14T22:26:09.088Z,99.90
2022-09-14T22:28:42.668Z,99.90
2022-09-14T22:31:09.525Z,99.90
2022-09-14T22:33:36.421Z,99.90
2022-09-14T22:36:05.265Z,99.90
2022-09-14T22:38:34.470Z,99.90
2022-09-14T22:41:07.155Z,99.90
2022-09-14T22:43:35.263Z,99.90
2022-09-14T22:46:02.653Z,99.90
2022-09-14T22:48:29.394Z,99.90
2022-09-14T22:50:57.530Z,99.90
2022-09-14T22:53:25.581Z,99.90
2022-09-14T22:55:52.878Z,99.90
2022-09-14T22:58:22.740Z,99.90
2022-09-14T23:00:49.531Z,99.90
2022-09-14T23:03:17.469Z,99.90
2022-09-14T23:05:51.363Z,99.90
2022-09-14T23:08:18.891Z,99.90
2022-09-14T23:10:47.317Z,99.90
2022-09-14T23:13:15.024Z,99.90
2022-09-14T23:15:41.999Z,99.90
2022-09-14T23:18:09.253Z,99.90
2022-09-14T23:20:38.133Z,99.90
2022-09-14T23:23:04.809Z,99.90
2022-09-14T23:25:34.248Z,99.90
2022-09-14T23:28:01.782Z,99.90
2022-09-14T23:30:28.478Z,99.90
2022-09-14T23:32:55.132Z,99.90
2022-09-14T23:35:21.818Z,99.90
2022-09-14T23:37:48.480Z,99.90
2022-09-14T23:40:15.262Z,99.90
2022-09-14T23:42:41.978Z,99.90
2022-09-14T23:45:09.242Z,99.90
2022-09-14T23:47:36.036Z,99.90
2022-09-14T23:50:02.663Z,99.90
2022-09-14T23:52:57.375Z,99.90
2022-09-14T23:55:24.940Z,99.90
2022-09-14T23:57:51.615Z,99.90
